createdAt,value
2022-07-30T07:07:41.158Z,22.59
2022-07-30T07:08:31.671Z,22.85
2022-07-30T07:09:30.651Z,23.08
2022-07-30T07:10:30.672Z,22.92
2022-07-30T07:11:30.611Z,22.96
2022-07-30T07:12:30.618Z,22.91
2022-07-30T07:13:30.589Z,22.96
2022-07-30T07:14:30.596Z,23.04
2022-07-30T07:15:36.121Z,23.37
2022-07-30T07:16:31.644Z,23.46
2022-07-30T07:17:30.548Z,23.29
2022-07-30T07:18:30.538Z,23.04
2022-07-30T07:20:01.529Z,22.86
2022-07-30T07:20:31.899Z,22.92
2022-07-30T07:21:30.519Z,22.93
2022-07-30T07:22:30.474Z,22.95
2022-07-30T07:23:41.864Z,22.95
2022-07-30T07:24:31.462Z,23.04
2022-07-30T07:25:30.442Z,23.17
2022-07-30T07:26:30.462Z,23.36
2022-07-30T07:27:30.430Z,23.45
2022-07-30T07:28:33.365Z,23.34
2022-07-30T07:29:30.439Z,23.36
2022-07-30T07:30:30.459Z,23.48
2022-07-30T07:32:07.000Z,23.55
2022-07-30T07:32:31.373Z,23.60
2022-07-30T07:33:30.360Z,23.76
2022-07-30T07:34:30.351Z,24.10
2022-07-30T07:35:30.348Z,24.00
2022-07-30T07:36:30.337Z,23.82
2022-07-30T07:37:30.327Z,23.73
2022-07-30T07:38:30.317Z,23.70
2022-07-30T07:39:30.312Z,23.84
2022-07-30T07:40:30.306Z,23.76
2022-07-30T07:41:30.276Z,23.88
2022-07-30T07:42:31.266Z,23.98
2022-07-30T07:43:30.273Z,24.03
2022-07-30T07:44:30.247Z,23.78
2022-07-30T07:45:30.252Z,23.56
2022-07-30T07:46:33.939Z,23.14
2022-07-30T07:47:30.222Z,22.95
2022-07-30T07:48:30.217Z,22.96
2022-07-30T07:49:30.206Z,23.13
2022-07-30T07:50:30.219Z,23.15
2022-07-30T07:51:46.760Z,23.15
2022-07-30T07:52:31.164Z,23.26
2022-07-30T07:53:30.157Z,23.33
2022-07-30T07:54:30.149Z,23.37
2022-07-30T07:55:31.671Z,23.36
2022-07-30T07:56:30.138Z,23.28
2022-07-30T07:57:30.112Z,23.36
2022-07-30T07:58:31.057Z,23.44
2022-07-30T07:59:39.583Z,23.49
2022-07-30T08:00:31.085Z,23.61
2022-07-30T08:01:30.144Z,23.64
2022-07-30T08:02:30.143Z,23.63
2022-07-30T08:03:30.060Z,23.73
2022-07-30T08:04:30.049Z,23.71
2022-07-30T08:06:01.023Z,23.73
2022-07-30T08:06:31.038Z,23.84
2022-07-30T08:07:30.036Z,24.13
2022-07-30T08:08:30.007Z,24.29
2022-07-30T08:09:40.888Z,24.40
2022-07-30T08:10:30.977Z,24.41
2022-07-30T08:11:29.986Z,24.47
2022-07-30T08:12:29.964Z,24.79
2022-07-30T08:13:51.720Z,24.65
2022-07-30T08:14:30.937Z,24.85
2022-07-30T08:15:29.925Z,25.14
2022-07-30T08:16:29.976Z,25.14
2022-07-30T08:17:29.915Z,25.14
2022-07-30T08:18:29.895Z,24.99
2022-07-30T08:19:29.896Z,25.22
2022-07-30T08:20:33.477Z,25.03
2022-07-30T08:21:29.872Z,25.11
2022-07-30T08:22:29.867Z,24.97
2022-07-30T08:23:29.840Z,25.01
2022-07-30T08:24:29.852Z,24.90
2022-07-30T08:25:29.838Z,24.96
2022-07-30T08:26:29.813Z,24.99
2022-07-30T08:27:29.801Z,24.79
2022-07-30T08:28:35.490Z,24.96
2022-07-30T08:29:30.789Z,25.09
2022-07-30T08:30:29.789Z,25.08
2022-07-30T08:31:29.770Z,24.90
2022-07-30T08:32:29.757Z,24.59
2022-07-30T08:33:29.746Z,24.51
2022-07-30T08:34:29.736Z,24.59
2022-07-30T08:35:29.722Z,24.37
2022-07-30T08:36:29.710Z,24.52
2022-07-30T08:37:29.715Z,24.56
2022-07-30T08:38:29.693Z,24.51
2022-07-30T08:39:29.692Z,24.85
2022-07-30T08:40:29.663Z,24.85
2022-07-30T08:41:29.654Z,25.08
2022-07-30T08:42:29.653Z,25.09
2022-07-30T08:43:29.648Z,25.09
2022-07-30T08:44:29.653Z,24.89
2022-07-30T08:45:34.779Z,24.55
2022-07-30T08:46:30.600Z,24.52
2022-07-30T08:47:29.599Z,24.53
2022-07-30T08:48:29.590Z,24.71
2022-07-30T08:49:29.579Z,24.82
2022-07-30T08:50:29.577Z,24.89
2022-07-30T08:51:29.549Z,24.90
2022-07-30T08:52:29.537Z,24.97
2022-07-30T08:53:29.530Z,25.14
2022-07-30T08:54:29.522Z,24.89
2022-07-30T08:55:29.534Z,24.86
2022-07-30T08:56:29.506Z,24.86
2022-07-30T08:57:29.493Z,24.78
2022-07-30T08:58:29.482Z,24.68
2022-07-30T08:59:59.093Z,24.63
2022-07-30T09:00:30.555Z,24.63
2022-07-30T09:01:29.463Z,24.85
2022-07-30T09:02:29.732Z,24.84
2022-07-30T09:03:29.428Z,24.84
2022-07-30T09:04:29.482Z,24.86
2022-07-30T09:05:29.417Z,24.97
2022-07-30T09:06:29.391Z,24.99
2022-07-30T09:07:29.429Z,24.93
2022-07-30T09:08:29.377Z,24.89
2022-07-30T09:09:29.369Z,25.00
2022-07-30T09:10:29.352Z,25.11
2022-07-30T09:11:29.362Z,25.01
2022-07-30T09:12:29.387Z,24.93
2022-07-30T09:13:29.319Z,24.99
2022-07-30T09:14:30.049Z,25.26
2022-07-30T09:15:29.311Z,25.34
2022-07-30T09:16:29.286Z,25.37
2022-07-30T09:17:32.680Z,25.48
2022-07-30T09:18:29.302Z,25.52
2022-07-30T09:19:29.255Z,25.49
2022-07-30T09:20:29.250Z,25.66
2022-07-30T09:21:29.329Z,25.59
2022-07-30T09:22:29.241Z,25.63
2022-07-30T09:23:29.218Z,25.66
2022-07-30T09:24:29.240Z,25.75
2022-07-30T09:25:29.193Z,25.64
2022-07-30T09:26:30.256Z,25.77
2022-07-30T09:27:29.201Z,25.63
2022-07-30T09:28:29.179Z,25.52
2022-07-30T09:29:29.150Z,25.43
2022-07-30T09:30:32.290Z,25.36
2022-07-30T09:32:29.129Z,25.56
2022-07-30T09:33:29.208Z,25.51
2022-07-30T09:34:29.121Z,25.37
2022-07-30T09:35:29.084Z,25.34
2022-07-30T09:36:29.090Z,25.34
2022-07-30T09:37:29.111Z,25.34
2022-07-30T09:38:29.098Z,25.46
2022-07-30T09:39:29.066Z,25.55
2022-07-30T09:40:32.097Z,25.68
2022-07-30T09:41:38.778Z,25.78
2022-07-30T09:42:30.030Z,25.66
2022-07-30T09:43:29.009Z,25.64
2022-07-30T09:44:28.993Z,25.75
2022-07-30T09:45:34.721Z,25.74
2022-07-30T09:46:30.042Z,25.86
2022-07-30T09:47:28.971Z,25.71
2022-07-30T09:48:28.948Z,25.70
2022-07-30T09:49:29.071Z,25.67
2022-07-30T09:50:30.058Z,25.58
2022-07-30T09:51:56.461Z,25.66
2022-07-30T09:52:29.928Z,25.77
2022-07-30T09:53:29.010Z,25.82
2022-07-30T09:54:28.893Z,25.95
2022-07-30T09:55:28.883Z,25.98
2022-07-30T09:56:30.115Z,25.89
2022-07-30T09:57:28.890Z,25.88
2022-07-30T09:58:28.855Z,25.96
2022-07-30T09:59:35.048Z,26.00
2022-07-30T10:00:29.871Z,25.95
2022-07-30T10:01:49.689Z,25.98
2022-07-30T10:02:32.310Z,25.96
2022-07-30T10:03:34.097Z,26.07
2022-07-30T10:04:29.796Z,26.21
2022-07-30T10:05:28.777Z,26.21
2022-07-30T10:06:28.771Z,26.31
2022-07-30T10:07:28.762Z,26.21
2022-07-30T10:08:29.796Z,26.00
2022-07-30T10:09:28.736Z,25.96
2022-07-30T10:10:28.731Z,26.11
2022-07-30T10:11:31.312Z,26.19
2022-07-30T10:12:28.715Z,26.15
2022-07-30T10:13:29.564Z,26.20
2022-07-30T10:14:30.750Z,26.31
2022-07-30T10:15:28.676Z,26.48
2022-07-30T10:16:28.747Z,26.52
2022-07-30T10:17:28.689Z,26.45
2022-07-30T10:18:28.690Z,26.38
2022-07-30T10:19:40.346Z,26.46
2022-07-30T10:20:29.642Z,26.64
2022-07-30T10:21:28.625Z,26.58
2022-07-30T10:22:28.621Z,26.56
2022-07-30T10:23:28.611Z,26.51
2022-07-30T10:24:28.602Z,26.42
2022-07-30T10:25:28.581Z,26.41
2022-07-30T10:26:28.562Z,26.48
2022-07-30T10:27:28.562Z,26.48
2022-07-30T10:28:28.540Z,26.63
2022-07-30T10:29:34.038Z,26.68
2022-07-30T10:30:29.561Z,26.67
2022-07-30T10:31:48.541Z,26.63
2022-07-30T10:32:30.938Z,26.56
2022-07-30T10:33:36.600Z,26.38
2022-07-30T10:34:34.026Z,26.31
2022-07-30T10:35:34.769Z,26.45
2022-07-30T10:36:29.493Z,26.61
2022-07-30T10:37:28.443Z,26.70
2022-07-30T10:38:28.443Z,26.85
2022-07-30T10:39:28.440Z,26.94
2022-07-30T10:40:30.948Z,26.86
2022-07-30T10:41:42.512Z,26.78
2022-07-30T10:42:29.419Z,26.86
2022-07-30T10:43:31.791Z,26.89
2022-07-30T10:44:28.387Z,26.93
2022-07-30T10:45:28.364Z,26.89
2022-07-30T10:46:28.363Z,26.97
2022-07-30T10:47:33.366Z,27.23
2022-07-30T10:48:29.352Z,27.26
2022-07-30T10:49:28.330Z,27.45
2022-07-30T10:50:29.325Z,27.73
2022-07-30T10:51:34.711Z,27.91
2022-07-30T10:52:29.296Z,28.07
2022-07-30T10:53:28.606Z,27.90
2022-07-30T10:54:28.281Z,27.90
2022-07-30T10:55:36.911Z,27.93
2022-07-30T10:56:29.260Z,27.87
2022-07-30T10:57:32.209Z,27.78
2022-07-30T10:58:28.240Z,27.57
2022-07-30T10:59:29.131Z,27.26
2022-07-30T11:00:28.230Z,27.32
2022-07-30T11:01:30.550Z,27.53
2022-07-30T11:02:28.197Z,27.70
2022-07-30T11:03:40.617Z,27.95
2022-07-30T11:04:29.579Z,28.12
2022-07-30T11:05:43.791Z,28.35
2022-07-30T11:06:29.190Z,28.05
2022-07-30T11:07:28.140Z,28.01
2022-07-30T11:08:32.596Z,27.98
2022-07-30T11:09:29.122Z,27.94
2022-07-30T11:10:28.125Z,28.01
2022-07-30T11:12:02.058Z,28.07
2022-07-30T11:12:29.104Z,27.95
2022-07-30T11:13:28.076Z,27.95
2022-07-30T11:14:28.072Z,28.27
2022-07-30T11:15:28.139Z,28.22
2022-07-30T11:16:29.060Z,28.00
2022-07-30T11:17:28.039Z,27.72
2022-07-30T11:18:28.618Z,27.72
2022-07-30T11:19:55.753Z,27.68
2022-07-30T11:20:28.997Z,27.70
2022-07-30T11:21:27.998Z,27.66
2022-07-30T11:22:27.978Z,27.73
2022-07-30T11:23:27.965Z,27.78
2022-07-30T11:24:27.973Z,27.94
2022-07-30T11:25:50.355Z,28.10
2022-07-30T11:26:28.948Z,28.37
2022-07-30T11:27:27.927Z,28.72
2022-07-30T11:28:27.921Z,28.90
2022-07-30T11:29:33.146Z,28.80
2022-07-30T11:30:30.590Z,28.46
2022-07-30T11:31:30.700Z,28.27
2022-07-30T11:32:29.677Z,28.25
2022-07-30T11:33:33.087Z,28.15
2022-07-30T11:34:31.486Z,28.05
2022-07-30T11:35:34.614Z,28.00
2022-07-30T11:36:28.848Z,28.24
2022-07-30T11:37:32.200Z,28.44
2022-07-30T11:38:27.978Z,28.77
2022-07-30T11:39:29.799Z,28.86
2022-07-30T11:40:28.987Z,29.04
2022-07-30T11:41:27.804Z,29.06
2022-07-30T11:42:27.808Z,28.66
2022-07-30T11:43:36.295Z,28.75
2022-07-30T11:44:28.754Z,28.87
2022-07-30T11:45:28.178Z,28.89
2022-07-30T11:46:29.302Z,29.00
2022-07-30T11:47:27.736Z,29.06
2022-07-30T11:48:27.847Z,29.06
2022-07-30T11:49:27.789Z,28.98
2022-07-30T11:50:27.691Z,29.07
2022-07-30T11:51:27.687Z,29.19
2022-07-30T11:52:27.689Z,29.29
2022-07-30T11:53:27.668Z,29.37
2022-07-30T11:54:27.667Z,28.87
2022-07-30T11:55:27.654Z,28.65
2022-07-30T11:56:27.635Z,28.81
2022-07-30T11:57:27.625Z,28.89
2022-07-30T11:58:28.608Z,29.07
2022-07-30T11:59:27.614Z,29.00
2022-07-30T12:00:27.603Z,28.94
2022-07-30T12:01:27.586Z,28.79
2022-07-30T12:02:27.588Z,28.72
2022-07-30T12:03:29.949Z,28.71
2022-07-30T12:04:27.555Z,28.65
2022-07-30T12:05:27.543Z,28.54
2022-07-30T12:06:27.564Z,28.27
2022-07-30T12:07:27.516Z,28.07
2022-07-30T12:08:35.230Z,27.68
2022-07-30T12:09:28.504Z,27.42
2022-07-30T12:10:27.788Z,27.64
2022-07-30T12:11:27.483Z,27.73
2022-07-30T12:12:27.484Z,27.85
2022-07-30T12:13:45.061Z,28.06
2022-07-30T12:14:28.447Z,28.30
2022-07-30T12:15:27.436Z,28.43
2022-07-30T12:16:27.428Z,28.34
2022-07-30T12:17:27.418Z,28.19
2022-07-30T12:18:27.455Z,27.98
2022-07-30T12:19:27.402Z,27.70
2022-07-30T12:20:27.389Z,27.66
2022-07-30T12:21:27.378Z,27.76
2022-07-30T12:22:27.373Z,27.66
2022-07-30T12:23:27.365Z,27.60
2022-07-30T12:24:27.378Z,27.66
2022-07-30T12:25:27.340Z,27.94
2022-07-30T12:26:27.414Z,28.31
2022-07-30T12:27:27.319Z,28.43
2022-07-30T12:28:27.310Z,28.64
2022-07-30T12:29:27.296Z,28.84
2022-07-30T12:30:27.315Z,28.89
2022-07-30T12:31:27.282Z,28.68
2022-07-30T12:32:27.263Z,28.32
2022-07-30T12:33:27.254Z,28.01
2022-07-30T12:34:27.254Z,27.87
2022-07-30T12:35:27.234Z,27.66
2022-07-30T12:36:27.230Z,27.44
2022-07-30T12:37:27.214Z,27.30
2022-07-30T12:38:27.212Z,27.50
2022-07-30T12:39:27.216Z,27.52
2022-07-30T12:40:27.184Z,27.38
2022-07-30T12:41:27.175Z,27.40
2022-07-30T12:42:27.179Z,27.32
2022-07-30T12:43:27.156Z,27.47
2022-07-30T12:44:27.155Z,27.35
2022-07-30T12:45:27.140Z,27.32
2022-07-30T12:46:27.123Z,27.38
2022-07-30T12:47:27.119Z,27.34
2022-07-30T12:48:27.112Z,27.25
2022-07-30T12:49:27.125Z,27.04
2022-07-30T12:50:28.092Z,27.17
2022-07-30T12:51:27.072Z,27.16
2022-07-30T12:52:28.527Z,26.95
2022-07-30T12:53:27.058Z,27.01
2022-07-30T12:54:27.058Z,27.00
2022-07-30T12:55:27.056Z,26.98
2022-07-30T12:56:34.633Z,27.00
2022-07-30T12:57:34.611Z,27.16
2022-07-30T12:58:34.647Z,27.25
2022-07-30T12:59:27.028Z,27.44
2022-07-30T13:00:26.990Z,27.78
2022-07-30T13:01:27.159Z,27.98
2022-07-30T13:02:26.956Z,28.27
2022-07-30T13:03:26.963Z,28.24
2022-07-30T13:04:26.966Z,28.27
2022-07-30T13:05:26.924Z,28.25
2022-07-30T13:06:26.944Z,28.10
2022-07-30T13:07:26.913Z,28.16
2022-07-30T13:08:26.896Z,28.16
2022-07-30T13:09:26.901Z,28.19
2022-07-30T13:10:30.696Z,28.12
2022-07-30T13:11:26.884Z,28.15
2022-07-30T13:12:26.872Z,28.31
2022-07-30T13:13:26.912Z,28.52
2022-07-30T13:14:26.940Z,28.34
2022-07-30T13:15:26.883Z,28.31
2022-07-30T13:16:26.825Z,28.46
2022-07-30T13:17:26.825Z,28.77
2022-07-30T13:18:26.796Z,28.86
2022-07-30T13:19:26.807Z,28.93
2022-07-30T13:20:26.801Z,28.80
2022-07-30T13:21:26.840Z,28.54
2022-07-30T13:22:26.768Z,28.52
2022-07-30T13:23:26.790Z,28.32
2022-07-30T13:24:26.731Z,28.25
2022-07-30T13:25:26.739Z,28.37
2022-07-30T13:26:27.747Z,28.61
2022-07-30T13:27:26.732Z,28.79
2022-07-30T13:28:26.750Z,28.84
2022-07-30T13:29:26.720Z,28.98
2022-07-30T13:30:26.715Z,29.10
2022-07-30T13:31:26.751Z,29.10
2022-07-30T13:32:26.669Z,29.28
2022-07-30T13:33:26.681Z,29.47
2022-07-30T13:34:26.644Z,29.00
2022-07-30T13:35:26.636Z,28.77
2022-07-30T13:36:26.620Z,28.57
2022-07-30T13:37:37.580Z,28.42
2022-07-30T13:38:27.648Z,28.32
2022-07-30T13:39:26.599Z,28.31
2022-07-30T13:40:26.596Z,28.34
2022-07-30T13:41:26.578Z,28.28
2022-07-30T13:42:26.567Z,28.50
2022-07-30T13:43:26.543Z,28.75
2022-07-30T13:44:26.561Z,28.77
2022-07-30T13:45:26.523Z,28.68
2022-07-30T13:46:26.544Z,28.52
2022-07-30T13:47:26.499Z,28.37
2022-07-30T13:48:26.495Z,28.31
2022-07-30T13:49:26.552Z,28.32
2022-07-30T13:50:26.469Z,28.34
2022-07-30T13:51:26.501Z,28.59
2022-07-30T13:52:26.443Z,28.69
2022-07-30T13:53:26.449Z,28.74
2022-07-30T13:54:26.491Z,28.59
2022-07-30T13:55:26.414Z,28.37
2022-07-30T13:56:26.434Z,28.35
2022-07-30T13:57:26.391Z,28.34
2022-07-30T13:58:26.394Z,28.24
2022-07-30T13:59:26.417Z,28.13
2022-07-30T14:00:26.363Z,28.25
2022-07-30T14:01:26.445Z,28.34
2022-07-30T14:02:26.376Z,28.57
2022-07-30T14:03:26.720Z,28.75
2022-07-30T14:04:26.423Z,28.84
2022-07-30T14:05:26.428Z,28.83
2022-07-30T14:06:26.323Z,28.69
2022-07-30T14:07:26.287Z,28.47
2022-07-30T14:08:26.292Z,28.32
2022-07-30T14:09:26.276Z,28.31
2022-07-30T14:10:26.257Z,28.44
2022-07-30T14:11:26.249Z,28.56
2022-07-30T14:12:26.238Z,28.64
2022-07-30T14:13:26.236Z,28.81
2022-07-30T14:14:26.224Z,28.86
2022-07-30T14:15:26.215Z,28.69
2022-07-30T14:16:44.679Z,28.68
2022-07-30T14:17:27.186Z,28.93
2022-07-30T14:18:26.176Z,28.96
2022-07-30T14:19:26.175Z,29.00
2022-07-30T14:20:29.015Z,28.87
2022-07-30T14:21:26.162Z,28.83
2022-07-30T14:22:26.147Z,28.61
2022-07-30T14:23:26.133Z,28.43
2022-07-30T14:24:26.117Z,28.22
2022-07-30T14:25:26.131Z,28.07
2022-07-30T14:26:30.239Z,28.17
2022-07-30T14:27:27.095Z,28.50
2022-07-30T14:28:26.091Z,28.53
2022-07-30T14:29:26.158Z,28.62
2022-07-30T14:30:26.058Z,28.74
2022-07-30T14:31:26.063Z,28.84
2022-07-30T14:32:28.732Z,29.02
2022-07-30T14:33:27.031Z,29.10
2022-07-30T14:34:26.028Z,29.17
2022-07-30T14:35:26.011Z,29.15
2022-07-30T14:36:27.451Z,29.28
2022-07-30T14:37:29.609Z,29.41
2022-07-30T14:38:27.578Z,29.46
2022-07-30T14:40:39.326Z,29.12
2022-07-30T14:41:36.808Z,29.04
2022-07-30T14:42:36.831Z,28.98
2022-07-30T14:43:36.670Z,29.13
2022-07-30T14:44:39.829Z,29.18
2022-07-30T14:45:38.530Z,29.19
2022-07-30T14:46:51.965Z,29.04
2022-07-30T14:47:38.123Z,28.75
2022-07-30T14:48:37.913Z,28.37
2022-07-30T14:49:37.369Z,28.10
2022-07-30T14:50:51.471Z,27.75
2022-07-30T14:51:37.615Z,27.61
2022-07-30T14:52:39.124Z,27.42
2022-07-30T14:53:37.535Z,27.35
2022-07-30T14:54:36.870Z,27.25
2022-07-30T14:55:36.600Z,27.19
2022-07-30T14:56:37.404Z,27.12
2022-07-30T14:57:40.780Z,27.05
2022-07-30T14:58:38.371Z,27.01
2022-07-30T14:59:38.860Z,27.03
2022-07-30T15:00:48.617Z,26.97
2022-07-30T15:01:40.932Z,27.04
2022-07-30T15:02:45.534Z,27.26
2022-07-30T15:32:14.161Z,28.75
2022-07-30T15:33:14.181Z,28.87
2022-07-30T15:34:14.149Z,28.83
2022-07-30T15:35:14.414Z,29.06
2022-07-30T15:36:14.111Z,29.25
2022-07-30T15:37:14.120Z,29.21
2022-07-30T15:38:14.113Z,28.98
2022-07-30T15:39:14.072Z,28.91
2022-07-30T15:40:14.070Z,28.89
2022-07-30T15:41:14.114Z,28.75
2022-07-30T15:42:14.056Z,28.47
2022-07-30T15:43:14.025Z,28.61
2022-07-30T15:44:14.055Z,28.65
2022-07-30T15:45:17.630Z,28.75
2022-07-30T15:46:13.997Z,28.66
2022-07-30T15:47:14.410Z,28.57
2022-07-30T15:48:14.015Z,28.66
2022-07-30T15:49:15.094Z,28.74
2022-07-30T15:50:13.965Z,28.81
2022-07-30T15:51:13.950Z,28.77
2022-07-30T15:52:13.979Z,28.68
2022-07-30T15:53:17.557Z,28.47
2022-07-30T15:54:13.922Z,28.30
2022-07-30T15:55:13.913Z,28.20
2022-07-30T15:56:13.898Z,28.03
2022-07-30T15:57:13.891Z,28.01
2022-07-30T15:58:13.891Z,27.76
2022-07-30T15:59:13.864Z,27.44
2022-07-30T16:00:13.860Z,27.41
2022-07-30T16:01:13.907Z,27.23
2022-07-30T16:02:13.843Z,27.25
2022-07-30T16:03:13.830Z,27.23
2022-07-30T16:04:19.697Z,27.32
2022-07-30T16:05:14.809Z,27.32
2022-07-30T16:06:13.826Z,27.35
2022-07-30T16:07:13.788Z,27.13
2022-07-30T16:08:13.779Z,26.95
2022-07-30T16:09:13.786Z,27.00
2022-07-30T16:10:13.752Z,27.68
2022-07-30T16:11:13.741Z,28.47
2022-07-30T16:12:13.743Z,28.61
2022-07-30T16:13:13.719Z,28.61
2022-07-30T16:14:13.717Z,28.24
2022-07-30T16:15:13.704Z,27.97
2022-07-30T16:16:13.690Z,27.68
2022-07-30T16:17:14.127Z,27.75
2022-07-30T16:18:13.667Z,28.84
2022-07-30T16:19:13.657Z,29.66
2022-07-30T16:20:13.645Z,30.35
2022-07-30T16:21:13.646Z,31.11
2022-07-30T16:22:14.940Z,31.81
2022-07-30T16:23:18.242Z,31.79
2022-07-30T16:24:14.615Z,31.51
2022-07-30T16:25:13.661Z,31.44
2022-07-30T16:26:13.590Z,31.52
2022-07-30T16:27:13.586Z,31.70
2022-07-30T16:28:13.605Z,31.01
2022-07-30T16:29:14.139Z,31.02
2022-07-30T16:30:13.713Z,30.65
2022-07-30T16:31:13.536Z,30.35
2022-07-30T16:32:13.528Z,29.87
2022-07-30T16:33:13.555Z,29.59
2022-07-30T16:34:13.500Z,28.87
2022-07-30T16:35:13.662Z,28.57
2022-07-30T16:36:13.495Z,28.81
2022-07-30T16:37:13.476Z,29.21
2022-07-30T16:38:13.467Z,29.49
2022-07-30T16:39:13.471Z,29.31
2022-07-30T16:40:13.440Z,29.13
2022-07-30T16:41:13.841Z,29.37
2022-07-30T16:42:13.425Z,29.13
2022-07-30T16:43:13.417Z,29.21
2022-07-30T16:44:13.405Z,29.95
2022-07-30T16:45:13.407Z,30.67
2022-07-30T16:46:13.378Z,31.17
2022-07-30T16:47:14.063Z,31.57
2022-07-30T16:48:13.358Z,31.81
2022-07-30T16:49:13.429Z,31.81
2022-07-30T16:50:13.377Z,30.30
2022-07-30T16:51:13.339Z,29.65
2022-07-30T16:52:13.319Z,29.04
2022-07-30T16:53:14.635Z,28.54
2022-07-30T16:54:13.296Z,28.13
2022-07-30T16:55:13.292Z,27.73
2022-07-30T16:56:13.353Z,27.34
2022-07-30T16:57:13.301Z,27.10
2022-07-30T16:58:13.263Z,26.93
2022-07-30T16:59:13.952Z,26.68
2022-07-30T17:00:13.248Z,26.46
2022-07-30T17:01:13.380Z,26.56
2022-07-30T17:02:13.212Z,26.39
2022-07-30T17:03:16.913Z,26.39
2022-07-30T17:04:14.201Z,27.12
2022-07-30T17:05:13.894Z,28.19
2022-07-30T17:06:13.183Z,28.59
2022-07-30T17:07:13.240Z,29.04
2022-07-30T17:08:13.152Z,29.71
2022-07-30T17:09:16.041Z,30.24
2022-07-30T17:10:13.143Z,29.77
2022-07-30T17:11:45.840Z,29.07
2022-07-30T17:12:14.125Z,28.52
2022-07-30T17:13:13.123Z,28.20
2022-07-30T17:14:13.101Z,28.44
2022-07-30T17:15:13.117Z,29.40
2022-07-30T17:16:13.073Z,30.05
2022-07-30T17:17:14.487Z,30.48
2022-07-30T17:18:13.058Z,30.00
2022-07-30T17:19:13.059Z,29.17
2022-07-30T17:20:13.038Z,28.38
2022-07-30T17:21:13.033Z,27.90
2022-07-30T17:22:13.013Z,27.40
2022-07-30T17:23:13.006Z,27.13
2022-07-30T17:24:13.007Z,26.95
2022-07-30T17:25:12.988Z,26.68
2022-07-30T17:26:12.978Z,26.65
2022-07-30T17:27:12.973Z,26.56
2022-07-30T17:28:12.954Z,26.45
2022-07-30T17:29:14.449Z,26.38
2022-07-30T17:30:12.937Z,26.21
2022-07-30T17:31:12.915Z,26.19
2022-07-30T17:32:12.906Z,26.19
2022-07-30T17:33:12.912Z,26.08
2022-07-30T17:34:12.899Z,26.04
2022-07-30T17:35:14.051Z,26.42
2022-07-30T17:36:12.866Z,26.23
2022-07-30T17:37:12.860Z,26.23
2022-07-30T17:38:12.847Z,25.98
2022-07-30T17:40:01.534Z,25.89
2022-07-30T17:40:30.678Z,25.83
2022-07-30T17:41:13.811Z,25.77
2022-07-30T17:42:13.259Z,25.67
2022-07-30T17:43:12.789Z,25.66
2022-07-30T17:44:12.799Z,25.55
2022-07-30T17:45:12.785Z,25.48
2022-07-30T17:46:12.772Z,25.52
2022-07-30T17:47:14.433Z,25.41
2022-07-30T17:48:12.747Z,25.21
2022-07-30T17:49:12.805Z,25.22
2022-07-30T17:50:12.744Z,25.27
2022-07-30T17:51:12.759Z,25.22
2022-07-30T17:52:12.701Z,25.21
2022-07-30T17:53:12.699Z,25.26
2022-07-30T17:54:12.680Z,25.31
2022-07-30T17:55:12.702Z,25.40
2022-07-30T17:56:26.602Z,25.41
2022-07-30T17:57:13.694Z,25.41
2022-07-30T17:58:12.644Z,25.41
2022-07-30T17:59:14.025Z,25.45
2022-07-30T18:00:12.623Z,25.48
2022-07-30T18:01:12.679Z,25.64
2022-07-30T18:02:12.602Z,25.56
2022-07-30T18:03:12.599Z,25.61
2022-07-30T18:04:12.585Z,25.58
2022-07-30T18:05:12.574Z,25.55
2022-07-30T18:06:12.558Z,25.49
2022-07-30T18:07:12.555Z,25.52
2022-07-30T18:08:12.564Z,25.52
2022-07-30T18:09:12.531Z,25.55
2022-07-30T18:10:12.518Z,25.61
2022-07-30T18:11:13.926Z,25.66
2022-07-30T18:12:12.528Z,25.55
2022-07-30T18:13:26.712Z,25.38
2022-07-30T18:14:14.309Z,25.27
2022-07-30T18:15:12.592Z,25.23
2022-07-30T18:16:12.588Z,25.33
2022-07-30T18:17:14.435Z,25.33
2022-07-30T18:18:12.920Z,25.34
2022-07-30T18:19:22.640Z,25.33
2022-07-30T18:20:13.698Z,25.28
2022-07-30T18:21:13.692Z,25.23
2022-07-30T18:22:14.896Z,25.09
2022-07-30T18:23:14.331Z,25.06
2022-07-30T18:24:14.058Z,24.96
2022-07-30T18:26:13.644Z,24.89
2022-07-30T18:27:12.882Z,24.84
2022-07-30T18:28:13.873Z,24.85
2022-07-30T18:29:15.042Z,24.78
2022-07-30T18:30:12.713Z,24.59
2022-07-30T18:31:13.365Z,24.56
2022-07-30T18:32:13.379Z,24.52
2022-07-30T18:34:13.573Z,24.41
2022-07-30T18:35:14.774Z,24.34
2022-07-30T18:36:12.395Z,24.25
2022-07-30T18:37:12.401Z,24.25
2022-07-30T18:38:12.325Z,24.15
2022-07-30T18:39:12.230Z,24.11
2022-07-30T18:40:12.223Z,24.00
2022-07-30T18:41:12.194Z,23.97
2022-07-30T18:42:12.186Z,23.85
2022-07-30T18:43:12.176Z,23.79
2022-07-30T18:44:12.161Z,23.73
2022-07-30T18:45:12.178Z,23.63
2022-07-30T18:46:12.136Z,23.55
2022-07-30T18:47:12.127Z,23.59
2022-07-30T18:48:12.113Z,23.49
2022-07-30T18:49:34.934Z,23.37
2022-07-30T18:50:13.214Z,23.51
2022-07-30T18:51:14.147Z,23.49
2022-07-30T18:52:12.079Z,23.48
2022-07-30T18:53:15.527Z,23.42
2022-07-30T18:54:12.061Z,23.34
2022-07-30T18:55:12.043Z,23.23
2022-07-30T18:56:12.157Z,23.21
2022-07-30T18:57:14.523Z,23.06
2022-07-30T18:58:12.030Z,23.15
2022-07-30T18:59:12.005Z,23.06
2022-07-30T19:00:31.112Z,22.98
2022-07-30T19:01:13.054Z,22.89
2022-07-30T19:02:11.970Z,22.81
2022-07-30T19:03:16.406Z,22.78
2022-07-30T19:04:12.956Z,22.70
2022-07-30T19:05:11.948Z,22.64
2022-07-30T19:06:11.924Z,22.64
2022-07-30T19:07:11.921Z,22.49
2022-07-30T19:08:11.929Z,22.48
2022-07-30T19:09:17.394Z,22.34
2022-07-30T19:10:12.931Z,22.28
2022-07-30T19:11:11.893Z,22.07
2022-07-30T19:12:11.870Z,22.09
2022-07-30T19:13:11.857Z,22.01
2022-07-30T19:14:11.846Z,21.96
2022-07-30T19:15:14.217Z,21.90
2022-07-30T19:16:11.848Z,21.90
2022-07-30T19:17:15.230Z,21.82
2022-07-30T19:18:11.829Z,21.85
2022-07-30T19:19:11.821Z,21.93
2022-07-30T19:20:11.786Z,22.03
2022-07-30T19:21:14.163Z,22.04
2022-07-30T19:22:11.756Z,22.09
2022-07-30T19:23:11.757Z,22.01
2022-07-30T19:24:11.748Z,22.03
2022-07-30T19:25:11.726Z,22.06
2022-07-30T19:26:11.737Z,21.98
2022-07-30T19:27:14.291Z,21.93
2022-07-30T19:28:11.706Z,21.88
2022-07-30T19:29:11.727Z,21.88
2022-07-30T19:30:11.682Z,21.81
2022-07-30T19:31:11.661Z,21.75
2022-07-30T19:32:11.652Z,21.66
2022-07-30T19:33:15.131Z,21.60
2022-07-30T19:34:11.646Z,21.48
2022-07-30T19:35:13.606Z,21.40
2022-07-30T19:36:11.625Z,21.37
2022-07-30T19:37:11.679Z,21.34
2022-07-30T19:38:14.305Z,21.28
2022-07-30T19:39:21.119Z,21.22
2022-07-30T19:40:12.839Z,21.08
2022-07-30T19:41:11.557Z,21.23
2022-07-30T19:42:11.566Z,21.10
2022-07-30T19:43:11.557Z,21.03
2022-07-30T19:44:11.537Z,20.95
2022-07-30T19:45:12.138Z,20.97
2022-07-30T19:46:11.518Z,20.92
2022-07-30T19:47:11.497Z,20.80
2022-07-30T19:48:11.492Z,20.82
2022-07-30T19:49:11.531Z,20.75
2022-07-30T19:50:11.582Z,20.75
2022-07-30T19:51:20.225Z,20.82
2022-07-30T19:52:23.900Z,20.86
2022-07-30T19:53:12.448Z,20.86
2022-07-30T19:54:11.434Z,20.95
2022-07-30T19:55:30.553Z,20.90
2022-07-30T19:56:12.403Z,20.95
2022-07-30T19:57:11.387Z,21.00
2022-07-30T19:59:14.587Z,20.98
2022-07-30T20:00:11.367Z,21.00
2022-07-30T20:01:11.409Z,20.95
2022-07-30T20:02:11.341Z,20.97
2022-07-30T20:03:14.569Z,20.90
2022-07-30T20:04:11.344Z,20.92
2022-07-30T20:05:11.303Z,20.90
2022-07-30T20:06:14.609Z,20.89
2022-07-30T20:07:11.282Z,20.86
2022-07-30T20:08:11.282Z,20.90
2022-07-30T20:09:14.217Z,20.90
2022-07-30T20:10:11.255Z,20.88
2022-07-30T20:11:11.245Z,20.83
2022-07-30T20:12:12.257Z,20.83
2022-07-30T20:13:11.225Z,20.86
2022-07-30T20:14:11.214Z,20.82
2022-07-30T20:15:14.884Z,20.70
2022-07-30T20:16:11.185Z,20.70
2022-07-30T20:17:11.174Z,20.64
2022-07-30T20:18:11.182Z,20.58
2022-07-30T20:19:11.155Z,20.52
2022-07-30T20:20:11.146Z,20.39
2022-07-30T20:21:15.099Z,20.44
2022-07-30T20:22:11.552Z,20.46
2022-07-30T20:23:11.121Z,20.37
2022-07-30T20:24:11.112Z,20.42
2022-07-30T20:25:11.109Z,20.25
2022-07-30T20:26:12.610Z,20.27
2022-07-30T20:27:36.582Z,20.32
2022-07-30T20:28:12.063Z,20.18
2022-07-30T20:29:19.187Z,20.15
2022-07-30T20:30:12.055Z,20.19
2022-07-30T20:31:11.041Z,20.11
2022-07-30T20:32:11.025Z,19.94
2022-07-30T20:33:11.022Z,19.90